createdAt,value
2023-04-02T00:02:31.465Z,97046.13
2023-04-02T00:06:40.286Z,97056.53
2023-04-02T00:10:50.916Z,97049.59
2023-04-02T00:14:55.212Z,97056.69
2023-04-02T00:19:03.922Z,97063.78
2023-04-02T00:23:06.778Z,97067.50
2023-04-02T00:27:14.130Z,97076.88
2023-04-02T00:31:17.253Z,97072.56
2023-04-02T00:35:26.406Z,97085.06
2023-04-02T00:39:44.201Z,97088.78
2023-04-02T00:43:50.657Z,97096.03
2023-04-02T00:47:52.963Z,97091.72
2023-04-02T00:52:21.405Z,97090.97
2023-04-02T00:56:36.044Z,97104.56
2023-04-02T01:00:38.292Z,97099.47
2023-04-02T01:04:41.825Z,97108.09
2023-04-02T01:09:11.565Z,97109.03
2023-04-02T01:13:21.406Z,97110.91
2023-04-02T01:17:48.878Z,97117.78
2023-04-02T01:22:04.167Z,97116.13
2023-04-02T01:26:17.303Z,97121.25
2023-04-02T01:30:21.133Z,97128.13
2023-04-02T01:34:26.871Z,97128.13
2023-04-02T01:38:40.409Z,97130.75
2023-04-02T01:42:58.485Z,97134.22
2023-04-02T01:47:06.308Z,97139.09
2023-04-02T01:51:25.394Z,97152.91
2023-04-02T01:55:47.214Z,97146.59
2023-04-02T01:59:49.490Z,97155.03
2023-04-02T02:03:52.625Z,97156.91
2023-04-02T02:07:57.200Z,97165.00
2023-04-02T02:12:02.656Z,97171.41
2023-04-02T02:16:07.165Z,97177.47
2023-04-02T02:20:10.999Z,97173.16
2023-04-02T02:24:28.282Z,97178.22
2023-04-02T02:28:36.379Z,97186.00
2023-04-02T02:32:45.727Z,97193.69
2023-04-02T02:36:53.974Z,97195.41
2023-04-02T02:41:01.488Z,97199.72
2023-04-02T02:45:11.238Z,97202.56
2023-04-02T02:49:18.443Z,97213.88
2023-04-02T02:53:21.876Z,97220.81
2023-04-02T02:57:29.119Z,97218.94
2023-04-02T03:01:32.240Z,97223.94
2023-04-02T03:05:40.265Z,97235.31
2023-04-02T03:10:04.101Z,97239.13
2023-04-02T03:14:44.072Z,97245.53
2023-04-02T03:19:07.646Z,97256.22
2023-04-02T03:23:22.348Z,97255.53
2023-04-02T03:27:31.796Z,97263.28
2023-04-02T03:31:45.282Z,97266.84
2023-04-02T03:36:25.813Z,97278.00
2023-04-02T03:40:35.167Z,97277.84
2023-04-02T03:45:02.888Z,97294.69
2023-04-02T03:49:19.276Z,97300.59
2023-04-02T03:53:26.956Z,97303.41
2023-04-02T03:57:32.455Z,97310.72
2023-04-02T04:01:46.561Z,97314.31
2023-04-02T04:05:57.345Z,97317.72
2023-04-02T04:10:01.484Z,97325.16
2023-04-02T04:14:19.242Z,97325.41
2023-04-02T04:18:34.815Z,97332.72
2023-04-02T04:22:41.240Z,97343.81
2023-04-02T04:27:21.507Z,97349.97
2023-04-02T04:31:34.024Z,97356.28
2023-04-02T04:35:45.498Z,97362.59
2023-04-02T04:39:57.509Z,97368.59
2023-04-02T04:44:41.932Z,97379.97
2023-04-02T04:48:58.652Z,97385.34
2023-04-02T04:53:07.087Z,97390.66
2023-04-02T04:57:23.456Z,97398.28
2023-04-02T05:01:34.779Z,97402.44
2023-04-02T05:05:39.839Z,97416.75
2023-04-02T05:10:12.218Z,97428.69
2023-04-02T05:14:27.015Z,97430.34
2023-04-02T05:18:39.901Z,97455.38
2023-04-02T05:22:53.107Z,97461.84
2023-04-02T05:27:02.428Z,97476.16
2023-04-02T05:31:21.175Z,97473.97
2023-04-02T05:35:31.938Z,97480.06
2023-04-02T05:39:35.217Z,97483.28
2023-04-02T05:43:41.074Z,97487.69
2023-04-02T05:47:47.131Z,97503.63
2023-04-02T05:52:00.172Z,97514.44
2023-04-02T05:56:17.780Z,97509.72
2023-04-02T06:00:32.337Z,97539.34
2023-04-02T06:05:05.694Z,97555.34
2023-04-02T06:09:17.835Z,97535.53
2023-04-02T06:13:21.097Z,97551.13
2023-04-02T06:17:23.912Z,97554.19
2023-04-02T06:21:26.376Z,97571.44
2023-04-02T06:25:35.294Z,97581.09
2023-04-02T06:29:42.755Z,97585.56
2023-04-02T06:33:54.791Z,97602.06
2023-04-02T06:38:01.810Z,97604.16
2023-04-02T06:42:16.643Z,97626.25
2023-04-02T06:46:45.534Z,97622.06
2023-04-02T06:50:56.854Z,97635.06
2023-04-02T06:54:59.405Z,97640.03
2023-04-02T06:59:04.409Z,97655.56
2023-04-02T07:03:13.689Z,97673.69
2023-04-02T07:07:16.477Z,97689.31
2023-04-02T07:11:22.274Z,97696.47
2023-04-02T07:15:27.005Z,97688.78
2023-04-02T07:19:29.237Z,97703.47
2023-04-02T07:23:33.292Z,97720.59
2023-04-02T07:27:35.276Z,97730.75
2023-04-02T07:31:38.198Z,97740.44
2023-04-02T07:35:40.995Z,97727.25
2023-04-02T07:39:43.087Z,97752.03
2023-04-02T07:43:46.030Z,97763.88
2023-04-02T07:47:48.090Z,97756.44
2023-04-02T07:51:51.921Z,97794.78
2023-04-02T07:55:54.020Z,97780.28
2023-04-02T07:59:56.982Z,97800.19
2023-04-02T08:03:59.003Z,97804.72
2023-04-02T08:08:01.460Z,97812.63
2023-04-02T08:12:03.605Z,97830.63
2023-04-02T08:16:07.068Z,97834.69
2023-04-02T08:20:16.133Z,97840.75
2023-04-02T08:24:19.335Z,97855.81
2023-04-02T08:28:22.346Z,97864.75
2023-04-02T08:32:26.396Z,97868.25
2023-04-02T08:36:37.892Z,97883.25
2023-04-02T08:40:43.361Z,97895.41
2023-04-02T08:44:52.912Z,97909.28
2023-04-02T08:49:02.439Z,97910.13
2023-04-02T08:53:27.278Z,97905.88
2023-04-02T08:57:54.520Z,97930.75
2023-04-02T09:01:59.796Z,97940.19
2023-04-02T09:06:03.879Z,97945.75
2023-04-02T09:10:06.392Z,97953.25
2023-04-02T09:14:18.695Z,97953.09
2023-04-02T09:18:21.288Z,97967.94
2023-04-02T09:22:26.143Z,97986.16
2023-04-02T09:26:31.238Z,97983.75
2023-04-02T09:31:00.210Z,97995.00
2023-04-02T09:35:25.395Z,98005.38
2023-04-02T09:39:28.037Z,98021.84
2023-04-02T09:43:34.733Z,98030.59
2023-04-02T09:47:37.318Z,98039.22
2023-04-02T09:51:39.396Z,98037.31
2023-04-02T09:55:41.473Z,98045.81
2023-04-02T09:59:43.506Z,98055.28
2023-04-02T10:03:46.503Z,98057.88
2023-04-02T10:07:51.246Z,98064.94
2023-04-02T10:11:55.780Z,98071.91
2023-04-02T10:16:01.046Z,98073.44
2023-04-02T10:20:36.324Z,98076.06
2023-04-02T10:24:44.026Z,98089.50
2023-04-02T10:29:08.547Z,98092.63
2023-04-02T10:33:35.680Z,98109.38
2023-04-02T10:37:40.834Z,98105.91
2023-04-02T10:41:48.505Z,98120.03
2023-04-02T10:46:02.731Z,98108.97
2023-04-02T10:50:14.967Z,98133.03
2023-04-02T10:54:23.152Z,98135.47
2023-04-02T10:58:59.258Z,98157.44
2023-04-02T11:03:14.964Z,98161.09
2023-04-02T11:07:22.554Z,98171.75
2023-04-02T11:11:29.893Z,98177.41
2023-04-02T11:15:32.374Z,98193.94
2023-04-02T11:19:36.304Z,98182.66
2023-04-02T11:23:56.226Z,98174.84
2023-04-02T11:28:26.133Z,98193.19
2023-04-02T11:32:42.952Z,98196.38
2023-04-02T11:36:52.586Z,98209.31
2023-04-02T11:40:56.261Z,98213.53
2023-04-02T11:45:35.587Z,98220.78
2023-04-02T11:49:54.539Z,98227.84
2023-04-02T11:53:58.486Z,98244.13
2023-04-02T11:58:22.819Z,98235.63
2023-04-02T12:02:29.133Z,98246.22
2023-04-02T12:06:47.727Z,98253.06
2023-04-02T12:10:59.441Z,98256.75
2023-04-02T12:15:01.736Z,98254.50
2023-04-02T12:19:08.391Z,98263.06
2023-04-02T12:23:21.235Z,98281.34
2023-04-02T12:27:28.010Z,98285.22
2023-04-02T12:31:30.378Z,98287.88
2023-04-02T12:35:35.292Z,98286.94
2023-04-02T12:39:37.654Z,98290.72
2023-04-02T12:43:40.107Z,98305.72
2023-04-02T12:47:45.067Z,98307.56
2023-04-02T12:51:48.397Z,98328.22
2023-04-02T12:55:52.549Z,98319.50
2023-04-02T12:59:59.993Z,98324.59
2023-04-02T13:04:12.384Z,98320.03
2023-04-02T13:08:27.158Z,98348.53
2023-04-02T13:12:41.041Z,98332.06
2023-04-02T13:16:43.197Z,98330.34
2023-04-02T13:20:57.439Z,98334.66
2023-04-02T13:24:59.486Z,98345.38
2023-04-02T13:29:23.927Z,98357.38
2023-04-02T13:33:26.565Z,98358.34
2023-04-02T13:37:28.639Z,98363.66
2023-04-02T13:41:34.869Z,98355.63
2023-04-02T13:45:38.679Z,98354.63
2023-04-02T13:49:40.789Z,98369.28
2023-04-02T13:53:42.945Z,98365.09
2023-04-02T13:57:45.551Z,98354.97
2023-04-02T14:01:50.141Z,98393.50
2023-04-02T14:06:18.946Z,98424.03
2023-04-02T14:10:39.784Z,98395.59
2023-04-02T14:14:59.291Z,98401.88
2023-04-02T14:19:14.761Z,98410.53
2023-04-02T14:23:29.016Z,98421.00
2023-04-02T14:27:56.636Z,98413.13
2023-04-02T14:32:07.044Z,98434.00
2023-04-02T14:36:19.015Z,98450.63
2023-04-02T14:40:36.648Z,98442.00
2023-04-02T14:44:44.976Z,98460.22
2023-04-02T14:49:21.368Z,98457.56
2023-04-02T14:53:37.343Z,98471.28
2023-04-02T14:57:48.827Z,98482.47
2023-04-02T15:01:57.999Z,98474.69
2023-04-02T15:06:06.029Z,98471.16
2023-04-02T15:10:24.601Z,98501.47
2023-04-02T15:14:42.253Z,98492.78
2023-04-02T15:18:44.275Z,98504.00
2023-04-02T15:23:29.088Z,98507.56
2023-04-02T15:27:57.083Z,98503.38
2023-04-02T15:32:16.975Z,98503.41
2023-04-02T15:36:41.040Z,98519.94
2023-04-02T15:41:04.113Z,98525.13
2023-04-02T15:45:11.950Z,98526.94
2023-04-02T15:49:29.175Z,98530.53
2023-04-02T15:53:39.217Z,98531.41
2023-04-02T15:58:13.999Z,98543.47
2023-04-02T16:02:29.429Z,98549.47
2023-04-02T16:06:53.231Z,98550.28
2023-04-02T16:10:55.324Z,98551.88
2023-04-02T16:15:23.563Z,98553.53
2023-04-02T16:19:28.552Z,98568.97
2023-04-02T16:23:36.863Z,98587.19
2023-04-02T16:27:45.362Z,98585.47
2023-04-02T16:32:26.604Z,98601.03
2023-04-02T16:37:10.945Z,98596.78
2023-04-02T16:41:22.584Z,98618.41
2023-04-02T16:45:46.621Z,98605.50
2023-04-02T16:50:03.273Z,98615.91
2023-04-02T16:54:16.395Z,98622.88
2023-04-02T16:58:21.491Z,98625.53
2023-04-02T17:02:48.382Z,98642.00
2023-04-02T17:07:04.695Z,98640.28
2023-04-02T17:11:16.280Z,98646.34
2023-04-02T17:15:28.149Z,98650.59
2023-04-02T17:19:32.932Z,98654.94
2023-04-02T17:23:55.790Z,98666.16
2023-04-02T17:27:58.681Z,98670.47
2023-04-02T17:32:03.426Z,98680.91
2023-04-02T17:36:09.083Z,98693.03
2023-04-02T17:40:26.106Z,98699.06
2023-04-02T17:44:33.484Z,98717.22
2023-04-02T17:48:47.489Z,98725.84
2023-04-02T17:53:22.618Z,98730.19
2023-04-02T17:57:34.717Z,98730.19
2023-04-02T18:01:46.915Z,98740.53
2023-04-02T18:06:00.059Z,98741.41
2023-04-02T18:10:22.050Z,98749.19
2023-04-02T18:14:42.598Z,98750.06
2023-04-02T18:19:08.704Z,98751.78
2023-04-02T18:23:13.551Z,98769.91
2023-04-02T18:27:26.987Z,98774.25
2023-04-02T18:31:56.578Z,98782.03
2023-04-02T18:36:21.737Z,98789.81
2023-04-02T18:40:23.913Z,98793.25
2023-04-02T18:44:34.722Z,98810.44
2023-04-02T18:49:02.582Z,98808.66
2023-04-02T18:53:12.591Z,98815.63
2023-04-02T18:57:31.907Z,98820.81
2023-04-02T19:05:51.334Z,98832.09
2023-04-02T19:09:59.704Z,98839.00
2023-04-02T19:14:12.741Z,98841.59
2023-04-02T19:18:36.370Z,98845.06
2023-04-02T19:22:50.126Z,98852.88
2023-04-02T19:27:27.121Z,98855.47
2023-04-02T19:31:58.395Z,98858.03
2023-04-02T19:36:28.873Z,98874.47
2023-04-02T19:40:51.385Z,98876.19
2023-04-02T19:44:54.014Z,98881.38
2023-04-02T19:49:16.844Z,98874.50
2023-04-02T19:53:19.384Z,98884.00
2023-04-02T19:57:21.822Z,98869.34
2023-04-02T20:01:23.885Z,98876.22
2023-04-02T20:05:26.097Z,98881.41
2023-04-02T20:09:29.658Z,98881.41
2023-04-02T20:13:31.675Z,98890.94
2023-04-02T20:17:33.987Z,98892.66
2023-04-02T20:21:38.632Z,98891.75
2023-04-02T20:25:53.189Z,98890.91
2023-04-02T20:29:55.221Z,98893.53
2023-04-02T20:33:59.539Z,98899.56
2023-04-02T20:38:06.292Z,98911.66
2023-04-02T20:42:08.368Z,98908.22
2023-04-02T20:46:12.637Z,98914.25
2023-04-02T20:50:14.766Z,98919.44
2023-04-02T20:54:17.004Z,98922.88
2023-04-02T20:58:19.076Z,98929.78
2023-04-02T21:02:21.268Z,98930.66
2023-04-02T21:06:25.537Z,98934.13
2023-04-02T21:10:27.562Z,98941.03
2023-04-02T21:14:35.530Z,98943.59
2023-04-02T21:18:37.639Z,98942.75
2023-04-02T21:22:39.776Z,98948.81
2023-04-02T21:26:41.905Z,98948.78
2023-04-02T21:30:43.988Z,98947.94
2023-04-02T21:34:45.990Z,98944.47
2023-04-02T21:38:54.805Z,98950.53
2023-04-02T21:42:56.842Z,98956.59
2023-04-02T21:46:58.977Z,98949.66
2023-04-02T21:51:06.652Z,98960.91
2023-04-02T21:55:09.021Z,98950.50
2023-04-02T21:59:12.481Z,98959.16
2023-04-02T22:03:24.871Z,98961.72
2023-04-02T22:07:31.430Z,98969.53
2023-04-02T22:11:46.014Z,98955.72
2023-04-02T22:15:48.087Z,98957.44
2023-04-02T22:19:50.185Z,98956.56
2023-04-02T22:23:52.836Z,98958.28
2023-04-02T22:27:54.939Z,98954.81
2023-04-02T22:31:57.035Z,98955.66
2023-04-02T22:35:59.476Z,98966.09
2023-04-02T22:40:01.533Z,98960.00
2023-04-02T22:44:03.989Z,98963.47
2023-04-02T22:48:06.322Z,98958.28
2023-04-02T22:52:09.001Z,98960.03
2023-04-02T22:56:14.296Z,98964.34
2023-04-02T23:00:17.550Z,98960.03
2023-04-02T23:04:19.553Z,98969.53
2023-04-02T23:08:21.636Z,98964.31
2023-04-02T23:12:23.659Z,98973.88
2023-04-02T23:16:28.042Z,98970.41
2023-04-02T23:20:30.202Z,98973.00
2023-04-02T23:24:32.320Z,98976.47
2023-04-02T23:28:35.619Z,98972.13
2023-04-02T23:32:37.685Z,98977.34
2023-04-02T23:36:39.887Z,98975.59
2023-04-02T23:40:41.894Z,98980.78
2023-04-02T23:44:43.898Z,98974.75
2023-04-02T23:48:46.700Z,98978.22
2023-04-02T23:52:48.792Z,98972.16
2023-04-02T23:56:50.924Z,98984.25
